Terminal Aerodrome Forecast
Issued by NWS Omaha/Valley, NE

Home | Current Version | Previous Version | Text Only | Print | Product List | Glossary On
Versions: 1 2 3 4 5 6 7 8 9 10 11 12 13 14 15 16 17 18 19 20 21 22 23 24 25 26 27 28 29
000
FTUS43 KOAX 220520
TAFOFK
TAF
KOFK 220520Z 2206/2306 14012KT P6SM SCT050 BKN250
     FM220800 15012KT P6SM BKN050
     FM221500 17015G24KT P6SM SCT040 BKN150
     FM221900 18015KT P6SM OVC040
      TEMPO 2221/2301 3SM TSRA BKN025CB
     FM230200 29007KT P6SM SCT035 BKN250=

USA.gov is the U.S. government's official web portal to all federal, state and local government web resources and services.